createdAt,value
2023-03-11T00:00:27.338Z,8.11
2023-03-11T00:02:56.510Z,8.01
2023-03-11T00:05:28.748Z,8.06
2023-03-11T00:07:56.412Z,7.97
2023-03-11T00:10:27.945Z,7.90
2023-03-11T00:12:56.347Z,7.79
2023-03-11T00:15:23.044Z,7.74
2023-03-11T00:17:50.474Z,7.76
2023-03-11T00:20:23.899Z,7.57
2023-03-11T00:22:53.408Z,7.52
2023-03-11T00:25:21.524Z,7.51
2023-03-11T00:27:48.517Z,7.54
2023-03-11T00:30:21.545Z,7.48
2023-03-11T00:32:53.254Z,7.42
2023-03-11T00:35:24.288Z,7.44
2023-03-11T00:37:55.086Z,7.36
2023-03-11T00:40:23.676Z,7.55
2023-03-11T00:42:51.000Z,7.45
2023-03-11T00:45:18.049Z,7.61
2023-03-11T00:47:45.383Z,7.61
2023-03-11T00:50:18.695Z,7.60
2023-03-11T00:52:47.494Z,7.50
2023-03-11T00:55:16.993Z,7.85
2023-03-11T00:57:44.536Z,7.85
2023-03-11T01:00:17.026Z,7.86
2023-03-11T01:02:43.977Z,7.81
2023-03-11T01:05:10.993Z,7.87
2023-03-11T01:07:38.137Z,7.94
2023-03-11T01:10:06.789Z,8.00
2023-03-11T01:12:33.888Z,8.03
2023-03-11T01:15:02.472Z,8.08
2023-03-11T01:17:29.300Z,8.15
2023-03-11T01:19:56.300Z,8.20
2023-03-11T01:22:23.267Z,8.16
2023-03-11T01:24:50.095Z,8.25
2023-03-11T01:27:16.905Z,8.31
2023-03-11T01:29:43.650Z,8.38
2023-03-11T01:32:11.504Z,8.41
2023-03-11T01:34:38.450Z,8.27
2023-03-11T01:37:05.235Z,8.33
2023-03-11T01:39:31.977Z,8.32
2023-03-11T01:41:58.715Z,8.30
2023-03-11T01:44:25.664Z,8.35
2023-03-11T01:46:52.722Z,8.48
2023-03-11T01:49:23.445Z,8.46
2023-03-11T01:51:54.591Z,8.48
2023-03-11T01:54:25.988Z,8.47
2023-03-11T01:56:54.592Z,8.38
2023-03-11T01:59:26.624Z,8.47
2023-03-11T02:02:06.985Z,8.46
2023-03-11T02:04:37.391Z,8.45
2023-03-11T02:07:04.612Z,8.41
2023-03-11T02:09:31.369Z,8.38
2023-03-11T02:11:58.465Z,8.43
2023-03-11T02:14:27.519Z,8.41
2023-03-11T02:16:55.346Z,8.38
2023-03-11T02:19:29.139Z,8.34
2023-03-11T02:21:57.345Z,8.24
2023-03-11T02:24:46.867Z,8.31
2023-03-11T02:27:16.502Z,8.25
2023-03-11T02:29:49.766Z,8.34
2023-03-11T02:32:18.767Z,8.41
2023-03-11T02:34:46.342Z,8.33
2023-03-11T02:37:16.711Z,8.47
2023-03-11T02:39:52.033Z,8.44
2023-03-11T02:42:32.144Z,8.42
2023-03-11T02:45:05.931Z,8.39
2023-03-11T02:47:33.835Z,8.31
2023-03-11T02:50:00.720Z,8.27
2023-03-11T02:52:33.840Z,8.31
2023-03-11T02:55:00.984Z,8.30
2023-03-11T02:57:27.825Z,8.30
2023-03-11T02:59:54.655Z,8.29
2023-03-11T03:02:21.399Z,8.30
2023-03-11T03:04:48.560Z,8.30
2023-03-11T03:07:16.085Z,8.30
2023-03-11T03:09:43.147Z,8.30
2023-03-11T03:12:09.926Z,8.30
2023-03-11T03:14:36.811Z,8.34
2023-03-11T03:17:03.979Z,8.32
2023-03-11T03:19:30.739Z,8.28
2023-03-11T03:21:57.521Z,8.29
2023-03-11T03:24:24.804Z,8.30
2023-03-11T03:26:52.250Z,8.30
2023-03-11T03:29:19.422Z,8.25
2023-03-11T03:31:48.408Z,8.39
2023-03-11T03:34:15.468Z,8.35
2023-03-11T03:36:42.538Z,8.25
2023-03-11T03:39:09.357Z,8.42
2023-03-11T03:41:37.473Z,8.46
2023-03-11T03:44:05.314Z,8.33
2023-03-11T03:46:34.356Z,8.35
2023-03-11T03:49:02.329Z,8.27
2023-03-11T03:51:30.614Z,8.34
2023-03-11T03:54:08.977Z,8.37
2023-03-11T03:56:36.106Z,8.34
2023-03-11T03:59:03.670Z,8.20
2023-03-11T04:01:37.100Z,8.35
2023-03-11T04:04:04.362Z,8.34
2023-03-11T04:06:31.177Z,8.34
2023-03-11T04:09:02.459Z,8.32
2023-03-11T04:11:33.009Z,8.34
2023-03-11T04:14:02.566Z,8.29
2023-03-11T04:16:30.564Z,8.24
2023-03-11T04:19:02.130Z,8.17
2023-03-11T04:21:28.899Z,8.12
2023-03-11T04:23:56.462Z,8.13
2023-03-11T04:26:30.005Z,7.97
2023-03-11T04:28:56.867Z,8.03
2023-03-11T04:31:25.347Z,7.95
2023-03-11T04:33:52.821Z,7.70
2023-03-11T04:36:19.662Z,7.80
2023-03-11T04:38:46.823Z,7.89
2023-03-11T04:41:14.377Z,7.86
2023-03-11T04:43:42.314Z,7.79
2023-03-11T04:46:09.107Z,7.82
2023-03-11T04:48:36.304Z,7.80
2023-03-11T04:51:03.404Z,7.69
2023-03-11T04:53:30.267Z,7.73
2023-03-11T04:55:57.421Z,7.64
2023-03-11T04:58:24.506Z,7.59
2023-03-11T05:00:52.863Z,7.53
2023-03-11T05:03:20.519Z,7.49
2023-03-11T05:05:47.387Z,7.46
2023-03-11T05:08:14.272Z,7.34
2023-03-11T05:10:42.787Z,7.29
2023-03-11T05:13:10.245Z,7.16
2023-03-11T05:15:39.180Z,7.25
2023-03-11T05:18:06.948Z,7.24
2023-03-11T05:20:36.158Z,7.24
2023-03-11T05:23:03.668Z,7.14
2023-03-11T05:25:32.462Z,7.22
2023-03-11T05:27:59.397Z,7.13
2023-03-11T05:30:26.336Z,7.11
2023-03-11T05:32:54.581Z,7.03
2023-03-11T05:35:21.942Z,7.19
2023-03-11T05:37:49.879Z,6.95
2023-03-11T05:40:18.576Z,7.00
2023-03-11T05:42:45.409Z,7.07
2023-03-11T05:45:14.608Z,7.00
2023-03-11T05:47:43.540Z,7.14
2023-03-11T05:50:13.094Z,7.19
2023-03-11T05:52:41.293Z,7.24
2023-03-11T05:55:09.936Z,7.28
2023-03-11T05:57:39.047Z,7.25
2023-03-11T06:00:12.476Z,7.27
2023-03-11T06:02:46.705Z,7.29
2023-03-11T06:05:17.161Z,7.28
2023-03-11T06:07:45.726Z,7.20
2023-03-11T06:10:12.909Z,7.11
2023-03-11T06:12:40.490Z,7.11
2023-03-11T06:15:26.010Z,7.15
2023-03-11T06:17:53.673Z,7.21
2023-03-11T06:20:20.651Z,7.17
2023-03-11T06:22:51.172Z,6.97
2023-03-11T06:25:20.020Z,7.11
2023-03-11T06:27:53.472Z,7.09
2023-03-11T06:30:21.614Z,7.09
2023-03-11T06:32:58.854Z,7.00
2023-03-11T06:35:27.215Z,7.03
2023-03-11T06:37:55.286Z,7.13
2023-03-11T06:40:22.072Z,7.13
2023-03-11T06:42:48.895Z,7.24
2023-03-11T06:45:18.968Z,7.28
2023-03-11T06:47:47.400Z,7.35
2023-03-11T06:50:14.572Z,7.36
2023-03-11T06:52:41.360Z,7.19
2023-03-11T06:55:09.031Z,7.34
2023-03-11T06:57:36.627Z,7.40
2023-03-11T07:00:07.883Z,7.44
2023-03-11T07:02:35.933Z,7.34
2023-03-11T07:05:03.762Z,7.45
2023-03-11T07:07:31.336Z,7.46
2023-03-11T07:09:58.391Z,7.46
2023-03-11T07:12:25.585Z,7.45
2023-03-11T07:14:57.265Z,7.44
2023-03-11T07:17:25.063Z,7.23
2023-03-11T07:19:53.470Z,7.26
2023-03-11T07:22:20.592Z,7.27
2023-03-11T07:24:48.711Z,7.13
2023-03-11T07:27:15.981Z,7.16
2023-03-11T07:29:42.753Z,7.23
2023-03-11T07:32:10.035Z,7.26
2023-03-11T07:34:36.827Z,7.37
2023-03-11T07:37:04.126Z,7.30
2023-03-11T07:39:30.877Z,7.56
2023-03-11T07:41:57.610Z,7.63
2023-03-11T07:44:33.775Z,7.69
2023-03-11T07:47:06.116Z,7.65
2023-03-11T07:49:33.808Z,7.80
2023-03-11T07:52:00.645Z,7.86
2023-03-11T07:54:27.550Z,7.82
2023-03-11T07:56:54.283Z,7.88
2023-03-11T07:59:21.065Z,7.96
2023-03-11T08:01:47.860Z,7.83
2023-03-11T08:04:16.984Z,7.81
2023-03-11T08:06:46.478Z,7.79
2023-03-11T08:09:13.989Z,7.69
2023-03-11T08:11:40.930Z,7.66
2023-03-11T08:14:07.711Z,7.55
2023-03-11T08:16:34.882Z,7.51
2023-03-11T08:19:02.140Z,7.40
2023-03-11T08:21:32.044Z,7.46
2023-03-11T08:24:01.410Z,7.53
2023-03-11T08:26:29.174Z,7.73
2023-03-11T08:28:57.282Z,7.69
2023-03-11T08:31:27.344Z,7.94
2023-03-11T08:33:57.937Z,8.01
2023-03-11T08:36:25.004Z,8.13
2023-03-11T08:38:51.972Z,8.10
2023-03-11T08:41:19.575Z,8.23
2023-03-11T08:43:47.010Z,8.32
2023-03-11T08:46:20.190Z,8.42
2023-03-11T08:48:47.041Z,8.42
2023-03-11T08:51:13.915Z,8.37
2023-03-11T08:53:41.066Z,8.20
2023-03-11T08:56:08.281Z,8.31
2023-03-11T08:58:35.409Z,8.27
2023-03-11T09:01:02.467Z,8.31
2023-03-11T09:03:32.612Z,8.29
2023-03-11T09:06:01.913Z,8.18
2023-03-11T09:08:29.389Z,8.27
2023-03-11T09:10:56.344Z,8.29
2023-03-11T09:13:23.590Z,8.21
2023-03-11T09:15:51.547Z,8.24
2023-03-11T09:18:18.817Z,8.21
2023-03-11T09:20:46.067Z,8.35
2023-03-11T09:23:15.770Z,8.32
2023-03-11T09:25:42.917Z,8.34
2023-03-11T09:28:09.744Z,8.36
2023-03-11T09:30:36.493Z,8.52
2023-03-11T09:33:03.281Z,8.67
2023-03-11T09:35:30.361Z,8.84
2023-03-11T09:37:57.355Z,8.83
2023-03-11T09:40:28.358Z,8.83
2023-03-11T09:43:14.959Z,8.84
2023-03-11T09:45:51.753Z,8.70
2023-03-11T09:48:29.704Z,8.65
2023-03-11T09:51:08.990Z,8.66
2023-03-11T09:53:42.304Z,8.64
2023-03-11T09:56:13.516Z,8.73
2023-03-11T09:58:47.559Z,8.77
2023-03-11T10:01:33.261Z,8.99
2023-03-11T10:04:13.357Z,8.95
2023-03-11T10:06:44.434Z,9.06
2023-03-11T10:09:36.544Z,9.09
2023-03-11T10:12:42.122Z,9.23
2023-03-11T10:15:48.387Z,9.22
2023-03-11T10:18:45.428Z,9.18
2023-03-11T10:21:31.212Z,9.23
2023-03-11T10:24:33.660Z,9.33
2023-03-11T10:27:05.077Z,9.39
2023-03-11T10:29:43.882Z,9.51
2023-03-11T10:32:20.499Z,9.37
2023-03-11T10:34:54.929Z,9.42
2023-03-11T10:37:38.848Z,9.51
2023-03-11T10:40:34.816Z,9.62
2023-03-11T10:43:12.013Z,9.49
2023-03-11T10:45:43.451Z,9.52
2023-03-11T10:48:16.445Z,9.63
2023-03-11T10:51:07.597Z,9.48
2023-03-11T10:53:46.671Z,9.38
2023-03-11T10:56:35.363Z,9.36
2023-03-11T10:59:04.326Z,9.32
2023-03-11T11:01:31.886Z,9.31
2023-03-11T11:04:01.148Z,9.42
2023-03-11T11:06:33.842Z,9.61
2023-03-11T11:09:21.987Z,9.54
2023-03-11T11:12:06.353Z,9.38
2023-03-11T11:15:02.463Z,9.48
2023-03-11T11:17:33.051Z,9.52
2023-03-11T11:20:12.989Z,9.83
2023-03-11T11:22:47.786Z,9.81
2023-03-11T11:25:30.273Z,10.07
2023-03-11T11:28:05.260Z,10.21
2023-03-11T11:30:32.014Z,10.15
2023-03-11T11:33:21.294Z,10.15
2023-03-11T11:35:51.434Z,10.05
2023-03-11T11:38:22.492Z,10.51
2023-03-11T11:40:49.268Z,10.62
2023-03-11T11:43:22.846Z,11.51
2023-03-11T11:45:56.214Z,13.28
2023-03-11T11:48:30.269Z,13.55
2023-03-11T11:51:03.350Z,13.55
2023-03-11T11:53:49.613Z,13.91
2023-03-11T11:56:16.508Z,13.61
2023-03-11T11:58:43.752Z,13.75
2023-03-11T12:01:19.829Z,12.32
2023-03-11T12:04:24.195Z,11.24
2023-03-11T12:06:57.232Z,11.48
2023-03-11T12:10:12.933Z,11.78
2023-03-11T12:13:37.679Z,11.18
2023-03-11T12:16:04.699Z,10.37
2023-03-11T12:18:53.790Z,9.96
2023-03-11T12:21:42.443Z,9.55
2023-03-11T12:24:11.977Z,9.48
2023-03-11T12:26:42.695Z,9.26
2023-03-11T12:29:26.446Z,9.22
2023-03-11T12:31:55.376Z,9.11
2023-03-11T12:34:24.751Z,9.12
2023-03-11T12:36:52.977Z,9.01
2023-03-11T12:39:25.260Z,8.87
2023-03-11T12:42:16.937Z,8.95
2023-03-11T12:44:44.754Z,8.86
2023-03-11T12:47:11.495Z,8.93
2023-03-11T12:49:46.232Z,8.94
2023-03-11T12:52:15.552Z,8.99
2023-03-11T12:54:43.547Z,8.81
2023-03-11T12:57:31.131Z,8.66
2023-03-11T13:00:22.918Z,8.71
2023-03-11T13:03:27.396Z,8.58
2023-03-11T13:06:12.779Z,8.61
2023-03-11T13:08:52.207Z,8.66
2023-03-11T13:11:37.160Z,8.77
2023-03-11T13:14:18.780Z,8.75
2023-03-11T13:16:46.840Z,8.59
2023-03-11T13:19:34.624Z,8.67
2023-03-11T13:22:03.976Z,8.62
2023-03-11T13:24:30.609Z,8.73
2023-03-11T13:27:02.240Z,8.63
2023-03-11T13:29:54.874Z,8.78
2023-03-11T13:32:39.784Z,8.70
2023-03-11T13:35:28.149Z,8.63
2023-03-11T13:38:21.022Z,8.54
2023-03-11T13:40:47.900Z,8.46
2023-03-11T13:43:20.908Z,8.37
2023-03-11T13:45:53.835Z,8.41
2023-03-11T13:48:37.624Z,8.30
2023-03-11T13:51:13.377Z,8.42
2023-03-11T13:53:53.432Z,8.25
2023-03-11T13:56:26.977Z,8.20
2023-03-11T13:58:54.341Z,8.06
2023-03-11T14:01:21.521Z,7.97
2023-03-11T14:03:48.615Z,7.90
2023-03-11T14:06:19.739Z,8.03
2023-03-11T14:08:57.663Z,8.17
2023-03-11T14:11:29.484Z,8.17
2023-03-11T14:13:56.581Z,8.08
2023-03-11T14:16:35.283Z,8.10
2023-03-11T14:19:08.859Z,8.17
2023-03-11T14:21:35.963Z,8.07
2023-03-11T14:24:03.979Z,8.18
2023-03-11T14:26:34.991Z,8.21
2023-03-11T14:29:09.647Z,8.11
2023-03-11T14:31:44.108Z,7.90
2023-03-11T14:34:10.913Z,7.84
2023-03-11T14:36:50.927Z,7.74
2023-03-11T14:39:26.626Z,7.78
2023-03-11T14:42:18.904Z,7.64
2023-03-11T14:45:10.768Z,7.60
2023-03-11T14:47:54.186Z,7.56
2023-03-11T14:50:27.560Z,7.61
2023-03-11T14:53:04.694Z,7.69
2023-03-11T14:55:58.630Z,7.85
2023-03-11T14:58:40.455Z,7.75
2023-03-11T15:01:12.809Z,7.64
2023-03-11T15:04:09.581Z,7.54
2023-03-11T15:06:41.051Z,7.46
2023-03-11T15:09:12.209Z,7.27
2023-03-11T15:11:52.196Z,7.51
2023-03-11T15:14:24.284Z,7.46
2023-03-11T15:16:52.462Z,7.35
2023-03-11T15:19:28.366Z,7.27
2023-03-11T15:21:59.673Z,7.31
2023-03-11T15:24:32.053Z,7.36
2023-03-11T15:27:03.271Z,7.24
2023-03-11T15:29:31.411Z,7.29
2023-03-11T15:31:59.306Z,7.32
2023-03-11T15:34:27.589Z,7.31
2023-03-11T15:37:19.573Z,7.30
2023-03-11T15:39:51.163Z,7.13
2023-03-11T15:42:21.729Z,7.19
2023-03-11T15:44:53.673Z,7.12
2023-03-11T15:47:22.720Z,7.02
2023-03-11T15:49:50.129Z,7.07
2023-03-11T15:52:19.412Z,6.97
2023-03-11T15:54:55.204Z,6.83
2023-03-11T15:57:32.305Z,6.82
2023-03-11T16:00:00.337Z,6.82
2023-03-11T16:02:30.296Z,6.76
2023-03-11T16:04:57.806Z,6.86
2023-03-11T16:07:38.652Z,6.77
2023-03-11T16:10:07.440Z,6.62
2023-03-11T16:12:34.412Z,6.49
2023-03-11T16:15:01.176Z,6.64
2023-03-11T16:17:39.572Z,6.71
2023-03-11T16:20:14.002Z,6.68
2023-03-11T16:22:40.912Z,6.62
2023-03-11T16:25:17.894Z,6.61
2023-03-11T16:27:44.811Z,6.48
2023-03-11T16:30:15.221Z,6.45
2023-03-11T16:32:43.246Z,6.41
2023-03-11T16:35:11.024Z,6.41
2023-03-11T16:37:38.382Z,6.42
2023-03-11T16:40:07.259Z,6.30
2023-03-11T16:42:34.178Z,6.29
2023-03-11T16:45:03.509Z,6.29
2023-03-11T16:47:30.671Z,6.23
2023-03-11T16:49:57.309Z,6.22
2023-03-11T16:52:24.236Z,6.19
2023-03-11T16:54:51.036Z,6.18
2023-03-11T16:57:17.784Z,6.15
2023-03-11T16:59:44.537Z,6.05
2023-03-11T17:02:12.257Z,6.08
2023-03-11T17:04:39.171Z,6.09
2023-03-11T17:07:06.648Z,6.07
2023-03-11T17:09:34.613Z,5.98
2023-03-11T17:12:02.553Z,5.89
2023-03-11T17:14:29.820Z,6.04
2023-03-11T17:16:56.567Z,5.94
2023-03-11T17:19:24.096Z,5.98
2023-03-11T17:21:51.365Z,5.93
2023-03-11T17:24:18.165Z,5.92
2023-03-11T17:26:45.038Z,5.67
2023-03-11T17:29:11.841Z,5.78
2023-03-11T17:31:38.688Z,5.64
2023-03-11T17:34:05.498Z,5.60
2023-03-11T17:36:32.206Z,5.56
2023-03-11T17:38:58.971Z,5.67
2023-03-11T17:41:25.707Z,5.65
2023-03-11T17:43:52.585Z,5.63
2023-03-11T17:46:20.532Z,5.63
2023-03-11T17:48:48.853Z,5.59
2023-03-11T17:51:18.934Z,5.58
2023-03-11T17:53:46.558Z,5.54
2023-03-11T17:56:15.527Z,5.42
2023-03-11T17:58:42.627Z,5.57
2023-03-11T18:01:13.986Z,5.46
2023-03-11T18:03:40.926Z,5.48
2023-03-11T18:06:08.510Z,5.53
2023-03-11T18:08:35.988Z,5.52
2023-03-11T18:11:07.109Z,5.55
2023-03-11T18:13:35.576Z,5.46
2023-03-11T18:16:07.613Z,5.47
2023-03-11T18:18:36.122Z,5.30
2023-03-11T18:21:18.237Z,5.38
2023-03-11T18:23:45.917Z,5.32
2023-03-11T18:26:15.280Z,5.26
2023-03-11T18:28:42.490Z,5.29
2023-03-11T18:31:18.026Z,5.30
2023-03-11T18:33:50.606Z,5.38
2023-03-11T18:36:19.365Z,5.25
2023-03-11T18:38:46.587Z,5.34
2023-03-11T18:41:13.845Z,5.31
2023-03-11T18:43:41.048Z,5.31
2023-03-11T18:46:10.233Z,5.33
2023-03-11T18:48:37.974Z,5.34
2023-03-11T18:51:05.610Z,5.30
2023-03-11T18:53:32.481Z,5.26
2023-03-11T18:56:11.713Z,5.18
2023-03-11T18:58:38.697Z,5.24
2023-03-11T19:01:06.557Z,5.22
2023-03-11T19:03:34.060Z,5.25
2023-03-11T19:06:01.833Z,5.23
2023-03-11T19:08:28.953Z,5.19
2023-03-11T19:10:56.173Z,5.21
2023-03-11T19:13:23.441Z,5.22
2023-03-11T19:15:50.309Z,5.27
2023-03-11T19:18:17.100Z,5.12
2023-03-11T19:20:43.945Z,5.22
2023-03-11T19:23:11.445Z,5.22
2023-03-11T19:25:38.367Z,5.18
2023-03-11T19:28:05.223Z,5.17
2023-03-11T19:30:32.785Z,5.17
2023-03-11T19:32:59.552Z,5.12
2023-03-11T19:35:26.363Z,5.02
2023-03-11T19:37:57.120Z,5.01
2023-03-11T19:40:24.443Z,5.11
2023-03-11T19:42:51.733Z,4.98
2023-03-11T19:45:18.625Z,5.18
2023-03-11T19:47:50.033Z,5.18
2023-03-11T19:50:17.997Z,5.21
2023-03-11T19:52:45.472Z,5.19
2023-03-11T19:55:12.504Z,5.05
2023-03-11T19:57:39.305Z,5.09
2023-03-11T20:00:07.237Z,5.11
2023-03-11T20:02:33.933Z,5.17
2023-03-11T20:05:00.819Z,5.14
2023-03-11T20:07:27.809Z,5.05
2023-03-11T20:09:54.615Z,5.07
2023-03-11T20:12:21.318Z,4.98
2023-03-11T20:14:48.420Z,5.03
2023-03-11T20:17:15.177Z,5.09
2023-03-11T20:19:42.200Z,5.17
2023-03-11T20:22:08.966Z,5.09
2023-03-11T20:24:35.696Z,4.94
2023-03-11T20:27:02.506Z,4.98
2023-03-11T20:29:29.301Z,4.97
2023-03-11T20:31:56.097Z,4.88
2023-03-11T20:34:23.030Z,4.84
2023-03-11T20:36:50.964Z,4.85
2023-03-11T20:39:17.925Z,4.79
2023-03-11T20:41:44.758Z,4.75
2023-03-11T20:44:14.075Z,4.76
2023-03-11T20:46:41.408Z,4.69
2023-03-11T20:49:08.542Z,4.68
2023-03-11T20:51:35.281Z,4.67
2023-03-11T20:54:02.162Z,4.61
2023-03-11T20:56:29.148Z,4.60
2023-03-11T20:58:56.529Z,4.59
2023-03-11T21:01:29.710Z,4.57
2023-03-11T21:03:59.200Z,4.54
2023-03-11T21:06:30.021Z,4.52
2023-03-11T21:08:58.833Z,4.50
2023-03-11T21:11:26.569Z,4.51
2023-03-11T21:13:54.839Z,4.52
2023-03-11T21:16:22.658Z,4.52
2023-03-11T21:18:49.988Z,4.38
2023-03-11T21:21:17.624Z,4.48
2023-03-11T21:23:45.431Z,4.45
2023-03-11T21:26:14.097Z,4.47
2023-03-11T21:28:42.311Z,4.45
2023-03-11T21:31:11.978Z,4.46
2023-03-11T21:33:39.767Z,4.30
2023-03-11T21:36:08.338Z,4.48
2023-03-11T21:38:35.526Z,4.35
2023-03-11T21:41:26.490Z,4.44
2023-03-11T21:43:55.514Z,4.41
2023-03-11T21:46:25.677Z,4.37
2023-03-11T21:48:52.863Z,4.21
2023-03-11T21:51:20.778Z,4.26
2023-03-11T21:53:47.815Z,4.38
2023-03-11T21:56:14.959Z,4.39
2023-03-11T21:58:42.243Z,4.38
2023-03-11T22:01:11.183Z,4.39
2023-03-11T22:03:38.364Z,4.44
2023-03-11T22:06:08.114Z,4.33
2023-03-11T22:08:35.352Z,4.35
2023-03-11T22:11:03.106Z,4.34
2023-03-11T22:13:30.198Z,4.33
2023-03-11T22:15:57.117Z,4.25
2023-03-11T22:18:23.964Z,4.28
2023-03-11T22:20:50.840Z,4.31
2023-03-11T22:23:17.646Z,4.22
2023-03-11T22:25:44.412Z,4.21
2023-03-11T22:28:13.010Z,4.22
2023-03-11T22:30:39.847Z,4.25
2023-03-11T22:33:07.309Z,4.22
2023-03-11T22:35:34.393Z,4.20
2023-03-11T22:38:01.143Z,4.17
2023-03-11T22:40:28.099Z,4.16
2023-03-11T22:42:55.101Z,3.99
2023-03-11T22:45:23.030Z,4.15
2023-03-11T22:47:50.343Z,4.06
2023-03-11T22:50:18.334Z,4.05
2023-03-11T22:52:45.630Z,4.02
2023-03-11T22:55:12.403Z,4.00
2023-03-11T22:57:39.284Z,3.97
2023-03-11T23:00:17.121Z,3.92
2023-03-11T23:02:48.636Z,4.01
2023-03-11T23:05:16.224Z,4.01
2023-03-11T23:07:43.193Z,4.03
2023-03-11T23:10:12.578Z,3.94
2023-03-11T23:12:40.209Z,4.02
2023-03-11T23:15:10.460Z,3.95
2023-03-11T23:17:37.231Z,3.90
2023-03-11T23:20:05.920Z,3.91
2023-03-11T23:22:37.907Z,3.88
2023-03-11T23:25:07.432Z,3.87
2023-03-11T23:27:34.154Z,3.87
2023-03-11T23:30:01.070Z,3.90
2023-03-11T23:32:28.051Z,3.83
2023-03-11T23:34:54.855Z,3.77
2023-03-11T23:37:21.609Z,3.78
2023-03-11T23:39:48.382Z,3.78
2023-03-11T23:42:25.594Z,3.81
2023-03-11T23:44:53.963Z,3.83
2023-03-11T23:47:21.186Z,3.81
2023-03-11T23:49:47.880Z,3.69
2023-03-11T23:52:14.612Z,3.76
2023-03-11T23:54:41.365Z,3.70
2023-03-11T23:57:08.234Z,3.70
2023-03-11T23:59:35.091Z,3.72
